createdAt,value
2023-01-21T00:00:39.771Z,101060.19
2023-01-21T00:04:41.419Z,101061.31
2023-01-21T00:08:43.332Z,101061.31
2023-01-21T00:12:44.884Z,101073.06
2023-01-21T00:16:46.426Z,101077.56
2023-01-21T00:20:47.986Z,101076.94
2023-01-21T00:24:49.495Z,101076.06
2023-01-21T00:28:51.076Z,101077.06
2023-01-21T00:32:52.630Z,101080.00
2023-01-21T00:36:56.446Z,101090.97
2023-01-21T00:41:09.969Z,101085.28
2023-01-21T00:45:11.559Z,101082.75
2023-01-21T00:49:13.125Z,101092.09
2023-01-21T00:53:14.666Z,101103.38
2023-01-21T00:57:16.326Z,101116.00
2023-01-21T01:01:20.722Z,101114.72
2023-01-21T01:05:22.355Z,101118.47
2023-01-21T01:09:23.974Z,101121.13
2023-01-21T01:13:26.367Z,101127.94
2023-01-21T01:17:27.939Z,101132.34
2023-01-21T01:21:29.546Z,101143.94
2023-01-21T01:25:31.089Z,101149.75
2023-01-21T01:29:32.720Z,101149.22
2023-01-21T01:33:34.447Z,101158.94
2023-01-21T01:37:35.986Z,101156.13
2023-01-21T01:41:37.615Z,101157.00
2023-01-21T01:45:39.132Z,101163.66
2023-01-21T01:49:42.032Z,101165.53
2023-01-21T01:53:46.710Z,101182.72
2023-01-21T01:57:51.443Z,101180.22
2023-01-21T02:01:53.506Z,101186.13
2023-01-21T02:05:55.552Z,101182.50
2023-01-21T02:09:57.214Z,101190.31
2023-01-21T02:13:59.951Z,101192.72
2023-01-21T02:18:33.406Z,101193.81
2023-01-21T02:23:16.802Z,101199.50
2023-01-21T02:27:51.387Z,101203.84
2023-01-21T02:32:37.884Z,101210.78
2023-01-21T02:36:54.554Z,101213.66
2023-01-21T02:41:08.529Z,101221.13
2023-01-21T02:45:25.212Z,101221.38
2023-01-21T02:49:51.814Z,101226.28
2023-01-21T02:53:53.396Z,101233.28
2023-01-21T02:57:59.158Z,101233.53
2023-01-21T03:02:25.703Z,101254.75
2023-01-21T03:06:38.937Z,101256.38
2023-01-21T03:10:43.945Z,101254.59
2023-01-21T03:15:29.234Z,101266.28
2023-01-21T03:19:42.806Z,101260.34
2023-01-21T03:23:49.164Z,101271.31
2023-01-21T03:27:52.058Z,101268.03
2023-01-21T03:31:58.901Z,101279.25
2023-01-21T03:36:07.343Z,101288.47
2023-01-21T03:40:18.887Z,101280.09
2023-01-21T03:44:21.132Z,101296.03
2023-01-21T03:48:40.598Z,101286.56
2023-01-21T03:52:44.361Z,101292.69
2023-01-21T03:56:45.897Z,101293.19
2023-01-21T04:00:49.159Z,101297.06
2023-01-21T04:04:53.101Z,101300.59
2023-01-21T04:08:54.663Z,101303.38
2023-01-21T04:12:56.499Z,101310.22
2023-01-21T04:16:58.154Z,101317.91
2023-01-21T04:20:59.773Z,101315.53
2023-01-21T04:25:01.388Z,101312.66
2023-01-21T04:29:03.143Z,101317.34
2023-01-21T04:33:04.744Z,101315.28
2023-01-21T04:37:06.340Z,101322.59
2023-01-21T04:41:07.894Z,101335.78
2023-01-21T04:45:09.863Z,101341.34
2023-01-21T04:49:11.397Z,101341.50
2023-01-21T04:53:13.098Z,101352.38
2023-01-21T04:57:14.705Z,101346.19
2023-01-21T05:01:16.297Z,101349.50
2023-01-21T05:05:17.890Z,101360.84
2023-01-21T05:09:19.489Z,101370.19
2023-01-21T05:13:21.209Z,101368.91
2023-01-21T05:17:22.835Z,101373.38
2023-01-21T05:21:24.475Z,101377.88
2023-01-21T05:25:26.008Z,101380.72
2023-01-21T05:29:27.573Z,101380.59
2023-01-21T05:33:35.669Z,101405.16
2023-01-21T05:37:37.185Z,101403.84
2023-01-21T05:41:38.730Z,101411.56
2023-01-21T05:45:40.265Z,101418.38
2023-01-21T05:49:41.803Z,101426.81
2023-01-21T05:53:45.172Z,101423.84
2023-01-21T05:57:46.726Z,101435.00
2023-01-21T06:01:48.313Z,101440.19
2023-01-21T06:05:50.351Z,101437.25
2023-01-21T06:09:51.952Z,101445.41
2023-01-21T06:13:53.495Z,101448.50
2023-01-21T06:17:55.651Z,101452.34
2023-01-21T06:21:57.305Z,101458.72
2023-01-21T06:26:02.833Z,101460.34
2023-01-21T06:30:09.667Z,101473.53
2023-01-21T06:34:12.653Z,101471.47
2023-01-21T06:38:14.802Z,101485.34
2023-01-21T06:42:17.922Z,101474.66
2023-01-21T06:46:19.524Z,101495.06
2023-01-21T06:50:21.116Z,101501.88
2023-01-21T06:54:22.667Z,101499.38
2023-01-21T06:58:24.376Z,101511.78
2023-01-21T07:02:26.492Z,101506.72
2023-01-21T07:06:28.148Z,101507.59
2023-01-21T07:10:29.799Z,101525.75
2023-01-21T07:14:31.444Z,101528.72
2023-01-21T07:18:32.994Z,101528.38
2023-01-21T07:22:35.109Z,101536.34
2023-01-21T07:26:38.216Z,101539.91
2023-01-21T07:30:39.914Z,101539.47
2023-01-21T07:34:41.916Z,101545.84
2023-01-21T07:38:43.514Z,101548.66
2023-01-21T07:42:51.000Z,101557.94
2023-01-21T07:46:53.018Z,101557.53
2023-01-21T07:50:59.007Z,101552.03
2023-01-21T07:55:01.653Z,101570.47
2023-01-21T07:59:03.265Z,101565.50
2023-01-21T08:03:04.907Z,101564.50
2023-01-21T08:07:11.955Z,101582.22
2023-01-21T08:11:14.432Z,101574.53
2023-01-21T08:15:16.685Z,101587.88
2023-01-21T08:19:18.381Z,101593.53
2023-01-21T08:23:19.933Z,101594.03
2023-01-21T08:27:21.631Z,101591.81
2023-01-21T08:31:23.290Z,101591.44
2023-01-21T08:35:24.982Z,101605.78
2023-01-21T08:39:26.525Z,101610.09
2023-01-21T08:43:28.085Z,101599.13
2023-01-21T08:47:29.667Z,101612.03
2023-01-21T08:51:31.237Z,101612.91
2023-01-21T08:55:33.184Z,101606.97
2023-01-21T08:59:35.176Z,101601.31
2023-01-21T09:03:36.923Z,101605.53
2023-01-21T09:07:38.499Z,101606.72
2023-01-21T09:11:40.070Z,101605.03
2023-01-21T09:15:44.489Z,101610.31
2023-01-21T09:19:46.114Z,101609.56
2023-01-21T09:23:47.705Z,101613.75
2023-01-21T09:27:49.247Z,101615.88
2023-01-21T09:31:50.805Z,101616.84
2023-01-21T09:35:56.780Z,101627.69
2023-01-21T09:39:58.336Z,101635.50
2023-01-21T09:44:24.482Z,101631.25
2023-01-21T09:48:34.428Z,101641.41
2023-01-21T09:52:43.221Z,101636.78
2023-01-21T09:56:57.506Z,101637.34
2023-01-21T10:01:07.003Z,101636.28
2023-01-21T10:05:39.083Z,101631.28
2023-01-21T10:09:51.961Z,101632.72
2023-01-21T10:14:02.092Z,101638.97
2023-01-21T10:18:09.849Z,101629.81
2023-01-21T10:22:35.139Z,101633.38
2023-01-21T10:26:36.780Z,101640.19
2023-01-21T10:30:42.185Z,101631.75
2023-01-21T10:34:51.271Z,101633.53
2023-01-21T10:39:06.598Z,101630.03
2023-01-21T10:43:38.092Z,101633.19
2023-01-21T10:47:50.695Z,101637.03
2023-01-21T10:52:14.173Z,101637.19
2023-01-21T10:56:43.692Z,101634.50
2023-01-21T11:00:48.655Z,101634.56
2023-01-21T11:04:51.147Z,101627.25
2023-01-21T11:08:57.101Z,101624.97
2023-01-21T11:12:58.842Z,101629.16
2023-01-21T11:17:00.515Z,101621.69
2023-01-21T11:21:17.299Z,101612.34
2023-01-21T11:25:47.842Z,101612.34
2023-01-21T11:29:50.296Z,101618.91
2023-01-21T11:33:52.866Z,101615.63
2023-01-21T11:37:54.418Z,101618.94
2023-01-21T11:41:58.653Z,101619.31
2023-01-21T11:46:00.541Z,101628.41
2023-01-21T11:50:22.846Z,101635.41
2023-01-21T11:54:24.925Z,101640.31
2023-01-21T11:58:31.896Z,101645.75
2023-01-21T12:02:39.676Z,101638.44
2023-01-21T12:06:47.213Z,101639.53
2023-01-21T12:10:50.335Z,101642.56
2023-01-21T12:14:57.982Z,101641.44
2023-01-21T12:19:26.439Z,101638.56
2023-01-21T12:23:41.162Z,101627.88
2023-01-21T12:28:03.834Z,101637.38
2023-01-21T12:32:15.411Z,101634.81
2023-01-21T12:36:24.793Z,101630.59
2023-01-21T12:40:47.709Z,101633.47
2023-01-21T12:44:53.810Z,101642.28
2023-01-21T12:49:15.474Z,101632.53
2023-01-21T12:53:35.463Z,101629.31
2023-01-21T12:57:43.437Z,101639.03
2023-01-21T13:02:18.235Z,101638.72
2023-01-21T13:06:52.344Z,101635.59
2023-01-21T13:11:03.292Z,101647.66
2023-01-21T13:15:18.713Z,101640.59
2023-01-21T13:19:20.493Z,101648.50
2023-01-21T13:23:42.904Z,101633.25
2023-01-21T13:27:59.001Z,101636.97
2023-01-21T13:32:24.100Z,101641.97
2023-01-21T13:36:55.046Z,101634.69
2023-01-21T13:41:26.256Z,101627.56
2023-01-21T13:45:48.046Z,101638.38
2023-01-21T13:49:55.664Z,101636.63
2023-01-21T13:54:18.575Z,101636.13
2023-01-21T13:58:57.502Z,101635.00
2023-01-21T14:03:15.974Z,101640.56
2023-01-21T14:07:42.072Z,101639.38
2023-01-21T14:11:51.313Z,101641.72
2023-01-21T14:16:16.386Z,101641.03
2023-01-21T14:20:31.101Z,101649.22
2023-01-21T14:25:06.609Z,101648.97
2023-01-21T14:29:12.017Z,101655.59
2023-01-21T14:33:20.105Z,101651.22
2023-01-21T14:37:30.991Z,101660.94
2023-01-21T14:42:09.239Z,101658.25
2023-01-21T14:46:25.742Z,101661.06
2023-01-21T14:50:45.822Z,101658.69
2023-01-21T14:54:48.635Z,101661.53
2023-01-21T14:59:15.091Z,101671.75
2023-01-21T15:03:27.274Z,101679.50
2023-01-21T15:07:33.811Z,101673.59
2023-01-21T15:11:37.257Z,101682.09
2023-01-21T15:16:07.277Z,101681.06
2023-01-21T15:20:44.785Z,101671.03
2023-01-21T15:25:15.406Z,101669.41
2023-01-21T15:29:37.744Z,101675.13
2023-01-21T15:33:44.799Z,101669.66
2023-01-21T15:37:48.943Z,101670.00
2023-01-21T15:42:18.623Z,101678.19
2023-01-21T15:46:38.645Z,101677.75
2023-01-21T15:51:01.940Z,101688.44
2023-01-21T15:55:17.893Z,101670.38
2023-01-21T15:59:43.075Z,101672.81
2023-01-21T16:03:57.599Z,101674.72
2023-01-21T16:08:02.194Z,101674.16
2023-01-21T16:12:12.880Z,101680.13
2023-01-21T16:16:29.513Z,101698.13
2023-01-21T16:20:32.630Z,101699.16
2023-01-21T16:24:40.603Z,101698.50
2023-01-21T16:28:46.594Z,101693.63
2023-01-21T16:33:06.060Z,101700.03
2023-01-21T16:37:11.730Z,101701.78
2023-01-21T16:41:13.781Z,101699.56
2023-01-21T16:45:19.138Z,101702.06
2023-01-21T16:49:21.011Z,101710.69
2023-01-21T16:53:24.023Z,101704.00
2023-01-21T16:57:31.625Z,101711.44
2023-01-21T17:01:33.341Z,101714.69
2023-01-21T17:05:36.720Z,101716.50
2023-01-21T17:09:38.781Z,101713.03
2023-01-21T17:13:43.180Z,101716.63
2023-01-21T17:17:45.352Z,101712.44
2023-01-21T17:21:51.090Z,101699.44
2023-01-21T17:26:02.214Z,101704.88
2023-01-21T17:30:26.312Z,101715.13
2023-01-21T17:34:30.799Z,101708.88
2023-01-21T17:38:39.187Z,101697.75
2023-01-21T17:42:41.006Z,101700.88
2023-01-21T17:46:55.733Z,101698.22
2023-01-21T17:51:08.101Z,101707.41
2023-01-21T17:55:34.529Z,101716.31
2023-01-21T17:59:41.488Z,101713.66
2023-01-21T18:03:43.387Z,101712.94
2023-01-21T18:07:45.025Z,101712.44
2023-01-21T18:11:51.582Z,101720.59
2023-01-21T18:15:54.202Z,101714.38
2023-01-21T18:19:57.859Z,101715.88
2023-01-21T18:23:59.664Z,101729.38
2023-01-21T18:28:01.298Z,101724.94
2023-01-21T18:32:02.930Z,101724.94
2023-01-21T18:36:05.327Z,101713.97
2023-01-21T18:40:07.544Z,101715.56
2023-01-21T18:44:09.406Z,101724.78
2023-01-21T18:48:15.274Z,101713.03
2023-01-21T18:52:18.810Z,101728.50
2023-01-21T18:56:21.651Z,101719.44
2023-01-21T19:00:26.260Z,101731.03
2023-01-21T19:04:27.866Z,101732.94
2023-01-21T19:08:29.512Z,101734.88
2023-01-21T19:12:31.148Z,101728.66
2023-01-21T19:16:32.853Z,101713.81
2023-01-21T19:20:35.857Z,101722.25
2023-01-21T19:24:37.381Z,101723.63
2023-01-21T19:28:39.111Z,101725.97
2023-01-21T19:32:40.853Z,101727.50
2023-01-21T19:36:42.535Z,101720.81
2023-01-21T19:40:45.604Z,101718.13
2023-01-21T19:44:47.192Z,101721.41
2023-01-21T19:48:50.472Z,101720.84
2023-01-21T19:52:53.897Z,101723.97
2023-01-21T19:56:55.582Z,101717.44
2023-01-21T20:00:57.408Z,101711.56
2023-01-21T20:04:59.012Z,101724.75
2023-01-21T20:09:00.942Z,101720.47
2023-01-21T20:13:02.764Z,101727.16
2023-01-21T20:17:04.992Z,101730.09
2023-01-21T20:21:06.515Z,101727.75
2023-01-21T20:25:13.808Z,101729.53
2023-01-21T20:29:16.563Z,101736.03
2023-01-21T20:33:20.421Z,101727.03
2023-01-21T20:37:22.044Z,101730.44
2023-01-21T20:41:23.748Z,101718.91
2023-01-21T20:45:33.145Z,101718.13
2023-01-21T20:49:34.816Z,101721.09
2023-01-21T20:53:36.786Z,101720.03
2023-01-21T20:57:38.357Z,101710.84
2023-01-21T21:01:40.112Z,101705.81
2023-01-21T21:05:41.870Z,101706.56
2023-01-21T21:09:43.466Z,101700.16
2023-01-21T21:13:48.113Z,101701.19
2023-01-21T21:17:49.848Z,101700.44
2023-01-21T21:21:51.458Z,101697.75
2023-01-21T21:25:53.130Z,101696.59
2023-01-21T21:29:58.709Z,101686.19
2023-01-21T21:34:00.543Z,101703.97
2023-01-21T21:38:14.338Z,101698.38
2023-01-21T21:42:34.633Z,101698.09
2023-01-21T21:46:55.897Z,101693.09
2023-01-21T21:50:57.800Z,101689.22
2023-01-21T21:54:59.520Z,101694.88
2023-01-21T21:59:01.181Z,101689.72
2023-01-21T22:03:02.850Z,101691.19
2023-01-21T22:07:04.368Z,101693.56
2023-01-21T22:11:08.813Z,101689.41
2023-01-21T22:15:10.672Z,101681.41
2023-01-21T22:19:12.338Z,101675.97
2023-01-21T22:23:13.847Z,101681.44
2023-01-21T22:27:15.368Z,101674.03
2023-01-21T22:31:19.723Z,101667.06
2023-01-21T22:35:21.390Z,101661.13
2023-01-21T22:39:22.966Z,101659.53
2023-01-21T22:43:24.671Z,101657.91
2023-01-21T22:47:28.565Z,101651.66
2023-01-21T22:51:30.374Z,101646.63
2023-01-21T22:55:32.293Z,101646.50
2023-01-21T22:59:33.951Z,101634.66
2023-01-21T23:03:37.206Z,101633.03
2023-01-21T23:07:38.765Z,101616.72
2023-01-21T23:11:41.512Z,101626.81
2023-01-21T23:15:47.126Z,101622.19
2023-01-21T23:19:48.667Z,101619.22
2023-01-21T23:23:50.463Z,101612.00
2023-01-21T23:27:52.106Z,101606.22
2023-01-21T23:31:53.823Z,101606.22
2023-01-21T23:35:55.911Z,101603.81
2023-01-21T23:39:57.633Z,101607.25
2023-01-21T23:44:00.788Z,101601.31
2023-01-21T23:48:02.623Z,101599.81
2023-01-21T23:52:05.705Z,101604.25
2023-01-21T23:56:17.304Z,101595.84
